sensor_id;sensor_type;location;lat;lon;timestamp;pressure;altitude;pressure_sealevel;temperature;humidity
30110;BME280;14965;50.660;13.226;2023-02-16T00:01:57;95667.81;;;0.04;80.03
30110;BME280;14965;50.660;13.226;2023-02-16T00:04:26;95665.91;;;0.04;79.57
30110;BME280;14965;50.660;13.226;2023-02-16T00:06:54;95660.91;;;0.06;79.20
30110;BME280;14965;50.660;13.226;2023-02-16T00:09:22;95669.16;;;0.10;78.88
30110;BME280;14965;50.660;13.226;2023-02-16T00:11:50;95663.03;;;0.13;77.98
30110;BME280;14965;50.660;13.226;2023-02-16T00:14:20;95661.31;;;0.24;77.31
30110;BME280;14965;50.660;13.226;2023-02-16T00:16:46;95661.13;;;0.33;76.42
30110;BME280;14965;50.660;13.226;2023-02-16T00:19:20;95656.38;;;0.45;75.43
30110;BME280;14965;50.660;13.226;2023-02-16T00:21:48;95661.00;;;0.61;73.82
30110;BME280;14965;50.660;13.226;2023-02-16T00:24:14;95668.25;;;0.72;73.13
30110;BME280;14965;50.660;13.226;2023-02-16T00:26:41;95673.78;;;0.76;72.44
30110;BME280;14965;50.660;13.226;2023-02-16T00:29:16;95666.41;;;0.77;73.00
30110;BME280;14965;50.660;13.226;2023-02-16T00:31:45;95674.09;;;0.74;73.44
30110;BME280;14965;50.660;13.226;2023-02-16T00:34:30;95672.91;;;0.72;73.97
30110;BME280;14965;50.660;13.226;2023-02-16T00:36:59;95673.59;;;0.69;74.01
30110;BME280;14965;50.660;13.226;2023-02-16T00:39:26;95668.09;;;0.65;73.70
30110;BME280;14965;50.660;13.226;2023-02-16T00:41:56;95661.88;;;0.65;74.03
30110;BME280;14965;50.660;13.226;2023-02-16T00:44:30;95663.03;;;0.64;73.85
30110;BME280;14965;50.660;13.226;2023-02-16T00:47:03;95664.94;;;0.63;74.19
30110;BME280;14965;50.660;13.226;2023-02-16T00:49:34;95668.78;;;0.62;74.46
30110;BME280;14965;50.660;13.226;2023-02-16T00:52:23;95665.72;;;0.64;74.35
30110;BME280;14965;50.660;13.226;2023-02-16T00:54:52;95661.09;;;0.64;73.98
30110;BME280;14965;50.660;13.226;2023-02-16T00:57:19;95663.88;;;0.68;73.76
30110;BME280;14965;50.660;13.226;2023-02-16T00:59:47;95667.38;;;0.68;73.33
30110;BME280;14965;50.660;13.226;2023-02-16T01:02:19;95666.69;;;0.71;74.10
30110;BME280;14965;50.660;13.226;2023-02-16T01:04:45;95664.38;;;0.73;73.97
30110;BME280;14965;50.660;13.226;2023-02-16T01:07:13;95657.78;;;0.74;73.95
30110;BME280;14965;50.660;13.226;2023-02-16T01:09:41;95658.94;;;0.73;73.25
30110;BME280;14965;50.660;13.226;2023-02-16T01:12:13;95656.69;;;0.76;73.06
30110;BME280;14965;50.660;13.226;2023-02-16T01:14:40;95652.81;;;0.77;72.75
30110;BME280;14965;50.660;13.226;2023-02-16T01:17:08;95644.19;;;0.74;73.49
30110;BME280;14965;50.660;13.226;2023-02-16T01:19:36;95653.50;;;0.73;73.92
30110;BME280;14965;50.660;13.226;2023-02-16T01:22:02;95647.28;;;0.73;73.33
30110;BME280;14965;50.660;13.226;2023-02-16T01:24:28;95643.78;;;0.72;74.10
30110;BME280;14965;50.660;13.226;2023-02-16T01:26:54;95633.63;;;0.69;73.98
30110;BME280;14965;50.660;13.226;2023-02-16T01:29:21;95626.91;;;0.63;74.73
30110;BME280;14965;50.660;13.226;2023-02-16T01:31:47;95629.88;;;0.58;74.05
30110;BME280;14965;50.660;13.226;2023-02-16T01:34:14;95631.72;;;0.54;74.07
30110;BME280;14965;50.660;13.226;2023-02-16T01:36:44;95630.06;;;0.49;74.56
30110;BME280;14965;50.660;13.226;2023-02-16T01:39:13;95630.34;;;0.44;74.61
30110;BME280;14965;50.660;13.226;2023-02-16T01:41:58;95634.13;;;0.40;75.23
30110;BME280;14965;50.660;13.226;2023-02-16T01:44:35;95629.00;;;0.35;75.11
30110;BME280;14965;50.660;13.226;2023-02-16T01:47:13;95626.19;;;0.31;75.36
30110;BME280;14965;50.660;13.226;2023-02-16T01:49:40;95619.50;;;0.29;75.83
30110;BME280;14965;50.660;13.226;2023-02-16T01:52:18;95615.94;;;0.24;75.94
30110;BME280;14965;50.660;13.226;2023-02-16T01:54:53;95619.00;;;0.23;75.54
30110;BME280;14965;50.660;13.226;2023-02-16T01:57:30;95613.16;;;0.21;75.79
30110;BME280;14965;50.660;13.226;2023-02-16T02:00:20;95616.22;;;0.19;76.27
30110;BME280;14965;50.660;13.226;2023-02-16T02:02:50;95610.69;;;0.16;76.22
30110;BME280;14965;50.660;13.226;2023-02-16T02:05:23;95612.19;;;0.13;76.03
30110;BME280;14965;50.660;13.226;2023-02-16T02:07:58;95616.84;;;0.13;76.49
30110;BME280;14965;50.660;13.226;2023-02-16T02:10:38;95616.84;;;0.13;76.92
30110;BME280;14965;50.660;13.226;2023-02-16T02:13:14;95605.19;;;0.12;76.96
30110;BME280;14965;50.660;13.226;2023-02-16T02:15:43;95607.09;;;0.12;77.00
30110;BME280;14965;50.660;13.226;2023-02-16T02:18:09;95609.50;;;0.13;76.60
30110;BME280;14965;50.660;13.226;2023-02-16T02:20:51;95604.16;;;0.17;76.68
30110;BME280;14965;50.660;13.226;2023-02-16T02:23:44;95605.78;;;0.21;76.46
30110;BME280;14965;50.660;13.226;2023-02-16T02:39:54;95605.78;;;0.57;75.02
30110;BME280;14965;50.660;13.226;2023-02-16T02:42:31;95599.34;;;0.65;74.68
30110;BME280;14965;50.660;13.226;2023-02-16T02:45:07;95600.28;;;0.72;74.67
30110;BME280;14965;50.660;13.226;2023-02-16T02:47:41;95603.94;;;0.80;74.13
30110;BME280;14965;50.660;13.226;2023-02-16T02:50:47;95593.19;;;0.87;73.87
30110;BME280;14965;50.660;13.226;2023-02-16T02:53:15;95598.00;;;0.94;73.28
30110;BME280;14965;50.660;13.226;2023-02-16T02:55:48;95603.94;;;0.99;72.89
30110;BME280;14965;50.660;13.226;2023-02-16T02:58:19;95597.84;;;1.06;72.22
30110;BME280;14965;50.660;13.226;2023-02-16T03:00:50;95599.19;;;1.16;72.38
30110;BME280;14965;50.660;13.226;2023-02-16T03:03:22;95604.84;;;1.27;71.84
30110;BME280;14965;50.660;13.226;2023-02-16T03:05:55;95607.75;;;1.37;71.60
30110;BME280;14965;50.660;13.226;2023-02-16T03:08:28;95609.81;;;1.44;71.57
30110;BME280;14965;50.660;13.226;2023-02-16T03:11:02;95611.47;;;1.48;70.88
30110;BME280;14965;50.660;13.226;2023-02-16T03:13:35;95615.41;;;1.51;70.94
30110;BME280;14965;50.660;13.226;2023-02-16T03:16:07;95613.03;;;1.49;71.12
30110;BME280;14965;50.660;13.226;2023-02-16T03:18:37;95620.84;;;1.51;71.47
30110;BME280;14965;50.660;13.226;2023-02-16T03:21:05;95625.06;;;1.48;71.97
30110;BME280;14965;50.660;13.226;2023-02-16T03:23:33;95614.19;;;1.48;72.19
30110;BME280;14965;50.660;13.226;2023-02-16T03:26:02;95613.09;;;1.53;71.80
30110;BME280;14965;50.660;13.226;2023-02-16T03:28:31;95615.50;;;1.58;71.61
30110;BME280;14965;50.660;13.226;2023-02-16T03:30:59;95605.84;;;1.61;71.32
30110;BME280;14965;50.660;13.226;2023-02-16T03:33:27;95613.69;;;1.66;70.83
30110;BME280;14965;50.660;13.226;2023-02-16T03:35:56;95609.94;;;1.74;70.97
30110;BME280;14965;50.660;13.226;2023-02-16T03:38:23;95615.47;;;1.78;71.03
30110;BME280;14965;50.660;13.226;2023-02-16T03:40:51;95608.44;;;1.77;71.29
30110;BME280;14965;50.660;13.226;2023-02-16T03:43:24;95608.44;;;1.77;71.75
30110;BME280;14965;50.660;13.226;2023-02-16T03:45:50;95606.81;;;1.72;71.74
30110;BME280;14965;50.660;13.226;2023-02-16T03:48:17;95605.59;;;1.69;72.00
30110;BME280;14965;50.660;13.226;2023-02-16T03:50:44;95613.91;;;1.77;72.20
30110;BME280;14965;50.660;13.226;2023-02-16T03:53:10;95606.56;;;1.81;72.60
30110;BME280;14965;50.660;13.226;2023-02-16T03:55:39;95613.53;;;1.78;72.32
30110;BME280;14965;50.660;13.226;2023-02-16T03:58:08;95615.16;;;1.83;72.39
30110;BME280;14965;50.660;13.226;2023-02-16T04:00:37;95613.22;;;1.83;71.94
30110;BME280;14965;50.660;13.226;2023-02-16T04:03:04;95610.09;;;1.81;72.23
30110;BME280;14965;50.660;13.226;2023-02-16T04:05:32;95601.84;;;1.78;72.86
30110;BME280;14965;50.660;13.226;2023-02-16T04:07:58;95595.56;;;1.73;72.54
30110;BME280;14965;50.660;13.226;2023-02-16T04:10:24;95607.16;;;1.70;73.21
30110;BME280;14965;50.660;13.226;2023-02-16T04:12:51;95607.91;;;1.67;73.27
30110;BME280;14965;50.660;13.226;2023-02-16T04:15:20;95612.19;;;1.68;73.61
30110;BME280;14965;50.660;13.226;2023-02-16T04:17:49;95612.97;;;1.69;73.56
30110;BME280;14965;50.660;13.226;2023-02-16T04:20:19;95612.53;;;1.67;74.26
30110;BME280;14965;50.660;13.226;2023-02-16T04:22:46;95606.69;;;1.65;74.14
30110;BME280;14965;50.660;13.226;2023-02-16T04:25:14;95601.56;;;1.60;74.85
30110;BME280;14965;50.660;13.226;2023-02-16T04:27:43;95607.66;;;1.53;74.75
30110;BME280;14965;50.660;13.226;2023-02-16T04:30:14;95617.69;;;1.49;75.37
30110;BME280;14965;50.660;13.226;2023-02-16T04:32:41;95609.81;;;1.44;75.80
30110;BME280;14965;50.660;13.226;2023-02-16T04:35:09;95611.69;;;1.40;75.50
30110;BME280;14965;50.660;13.226;2023-02-16T04:37:37;95608.53;;;1.38;75.80
30110;BME280;14965;50.660;13.226;2023-02-16T04:40:05;95608.13;;;1.36;75.58
30110;BME280;14965;50.660;13.226;2023-02-16T04:42:32;95599.88;;;1.32;76.15
30110;BME280;14965;50.660;13.226;2023-02-16T04:44:59;95593.25;;;1.30;76.59
30110;BME280;14965;50.660;13.226;2023-02-16T04:47:26;95594.75;;;1.27;77.00
30110;BME280;14965;50.660;13.226;2023-02-16T04:49:52;95598.25;;;1.28;76.67
30110;BME280;14965;50.660;13.226;2023-02-16T04:52:20;95606.41;;;1.28;76.65
30110;BME280;14965;50.660;13.226;2023-02-16T04:54:47;95606.41;;;1.28;76.46
30110;BME280;14965;50.660;13.226;2023-02-16T04:57:14;95609.91;;;1.28;76.48
30110;BME280;14965;50.660;13.226;2023-02-16T04:59:40;95609.91;;;1.28;76.99
30110;BME280;14965;50.660;13.226;2023-02-16T05:02:07;95609.50;;;1.26;76.62
30110;BME280;14965;50.660;13.226;2023-02-16T05:04:33;95609.50;;;1.26;76.80
30110;BME280;14965;50.660;13.226;2023-02-16T05:07:00;95611.00;;;1.23;77.36
30110;BME280;14965;50.660;13.226;2023-02-16T05:09:28;95606.34;;;1.24;76.89
30110;BME280;14965;50.660;13.226;2023-02-16T05:11:54;95604.78;;;1.23;77.42
30110;BME280;14965;50.660;13.226;2023-02-16T05:14:24;95607.88;;;1.21;77.54
30110;BME280;14965;50.660;13.226;2023-02-16T05:16:51;95606.63;;;1.19;77.27
30110;BME280;14965;50.660;13.226;2023-02-16T05:19:17;95613.94;;;1.15;77.45
30110;BME280;14965;50.660;13.226;2023-02-16T05:21:43;95610.78;;;1.13;77.63
30110;BME280;14965;50.660;13.226;2023-02-16T05:24:10;95603.00;;;1.11;78.07
30110;BME280;14965;50.660;13.226;2023-02-16T05:26:38;95605.31;;;1.09;77.89
30110;BME280;14965;50.660;13.226;2023-02-16T05:29:06;95606.41;;;1.08;78.05
30110;BME280;14965;50.660;13.226;2023-02-16T05:31:33;95619.25;;;1.08;78.14
30110;BME280;14965;50.660;13.226;2023-02-16T05:33:59;95607.16;;;1.05;78.58
30110;BME280;14965;50.660;13.226;2023-02-16T05:36:26;95610.59;;;1.02;78.34
30110;BME280;14965;50.660;13.226;2023-02-16T05:38:52;95602.00;;;1.00;78.64
30110;BME280;14965;50.660;13.226;2023-02-16T05:41:22;95605.44;;;0.97;78.85
30110;BME280;14965;50.660;13.226;2023-02-16T05:43:56;95613.59;;;0.97;79.22
30110;BME280;14965;50.660;13.226;2023-02-16T05:46:24;95610.88;;;0.97;79.15
30110;BME280;14965;50.660;13.226;2023-02-16T05:48:53;95614.38;;;0.97;79.10
30110;BME280;14965;50.660;13.226;2023-02-16T05:51:24;95615.09;;;0.94;78.67
30110;BME280;14965;50.660;13.226;2023-02-16T05:53:54;95612.75;;;0.93;79.06
30110;BME280;14965;50.660;13.226;2023-02-16T05:56:22;95615.81;;;0.91;79.31
30110;BME280;14965;50.660;13.226;2023-02-16T05:58:50;95615.81;;;0.91;79.58
30110;BME280;14965;50.660;13.226;2023-02-16T06:01:17;95614.69;;;0.92;79.59
30110;BME280;14965;50.660;13.226;2023-02-16T06:03:44;95616.25;;;0.93;79.53
30110;BME280;14965;50.660;13.226;2023-02-16T06:06:11;95614.31;;;0.94;79.52
30110;BME280;14965;50.660;13.226;2023-02-16T06:08:38;95617.81;;;0.94;79.77
30110;BME280;14965;50.660;13.226;2023-02-16T06:11:05;95615.09;;;0.94;80.02
30110;BME280;14965;50.660;13.226;2023-02-16T06:13:32;95613.16;;;0.95;79.75
30110;BME280;14965;50.660;13.226;2023-02-16T06:16:00;95609.66;;;0.94;80.42
30110;BME280;14965;50.660;13.226;2023-02-16T06:18:26;95608.50;;;0.95;80.20
30110;BME280;14965;50.660;13.226;2023-02-16T06:20:56;95615.19;;;0.98;80.32
30110;BME280;14965;50.660;13.226;2023-02-16T06:23:22;95616.41;;;1.01;80.36
30110;BME280;14965;50.660;13.226;2023-02-16T06:25:49;95612.53;;;1.02;80.69
30110;BME280;14965;50.660;13.226;2023-02-16T06:28:15;95617.59;;;1.03;80.85
30110;BME280;14965;50.660;13.226;2023-02-16T06:30:42;95614.59;;;1.08;80.92
30110;BME280;14965;50.660;13.226;2023-02-16T06:33:09;95611.53;;;1.10;80.68
30110;BME280;14965;50.660;13.226;2023-02-16T06:35:35;95614.25;;;1.10;80.41
30110;BME280;14965;50.660;13.226;2023-02-16T06:38:02;95611.94;;;1.12;80.79
30110;BME280;14965;50.660;13.226;2023-02-16T06:40:28;95613.16;;;1.14;80.83
30110;BME280;14965;50.660;13.226;2023-02-16T06:42:54;95610.84;;;1.16;81.28
30110;BME280;14965;50.660;13.226;2023-02-16T06:45:21;95605.16;;;1.21;81.68
30110;BME280;14965;50.660;13.226;2023-02-16T06:47:47;95609.56;;;1.30;81.80
30110;BME280;14965;50.660;13.226;2023-02-16T06:50:14;95613.56;;;1.36;81.67
30110;BME280;14965;50.660;13.226;2023-02-16T06:52:41;95608.97;;;1.40;81.65
30110;BME280;14965;50.660;13.226;2023-02-16T06:55:08;95611.38;;;1.45;81.09
30110;BME280;14965;50.660;13.226;2023-02-16T06:57:34;95621.19;;;1.49;81.28
30110;BME280;14965;50.660;13.226;2023-02-16T07:00:01;95617.38;;;1.54;81.28
30110;BME280;14965;50.660;13.226;2023-02-16T07:02:27;95612.00;;;1.58;81.18
30110;BME280;14965;50.660;13.226;2023-02-16T07:04:54;95610.91;;;1.62;81.70
30110;BME280;14965;50.660;13.226;2023-02-16T07:07:21;95614.94;;;1.68;81.59
30110;BME280;14965;50.660;13.226;2023-02-16T07:09:48;95616.94;;;1.71;81.58
30110;BME280;14965;50.660;13.226;2023-02-16T07:12:14;95613.16;;;1.80;81.04
30110;BME280;14965;50.660;13.226;2023-02-16T07:14:41;95619.88;;;1.86;81.22
30110;BME280;14965;50.660;13.226;2023-02-16T07:17:07;95630.47;;;1.91;80.94
30110;BME280;14965;50.660;13.226;2023-02-16T07:19:34;95628.22;;;1.96;80.65
30110;BME280;14965;50.660;13.226;2023-02-16T07:22:03;95636.88;;;2.02;80.78
30110;BME280;14965;50.660;13.226;2023-02-16T07:24:33;95636.56;;;2.07;80.69
30110;BME280;14965;50.660;13.226;2023-02-16T07:27:01;95638.19;;;2.12;80.45
30110;BME280;14965;50.660;13.226;2023-02-16T07:29:28;95633.28;;;2.21;80.23
30110;BME280;14965;50.660;13.226;2023-02-16T07:31:55;95630.25;;;2.26;79.70
30110;BME280;14965;50.660;13.226;2023-02-16T07:34:22;95633.19;;;2.40;79.63
30110;BME280;14965;50.660;13.226;2023-02-16T07:36:48;95627.91;;;2.51;79.27
30110;BME280;14965;50.660;13.226;2023-02-16T07:39:15;95623.38;;;2.62;79.28
30110;BME280;14965;50.660;13.226;2023-02-16T07:41:43;95616.50;;;2.72;79.14
30110;BME280;14965;50.660;13.226;2023-02-16T07:44:10;95623.66;;;2.84;78.49
30110;BME280;14965;50.660;13.226;2023-02-16T07:46:38;95621.84;;;2.95;78.48
30110;BME280;14965;50.660;13.226;2023-02-16T07:49:04;95629.03;;;3.07;77.64
30110;BME280;14965;50.660;13.226;2023-02-16T07:51:32;95622.91;;;3.17;77.71
30110;BME280;14965;50.660;13.226;2023-02-16T07:53:59;95623.41;;;3.26;76.81
30110;BME280;14965;50.660;13.226;2023-02-16T07:56:28;95623.47;;;3.33;76.59
30110;BME280;14965;50.660;13.226;2023-02-16T07:58:58;95634.88;;;3.39;76.48
30110;BME280;14965;50.660;13.226;2023-02-16T08:01:26;95624.00;;;3.46;76.13
30110;BME280;14965;50.660;13.226;2023-02-16T08:03:54;95620.50;;;3.45;74.96
30110;BME280;14965;50.660;13.226;2023-02-16T08:06:21;95615.91;;;3.53;74.83
30110;BME280;14965;50.660;13.226;2023-02-16T08:08:48;95614.81;;;3.61;74.73
30110;BME280;14965;50.660;13.226;2023-02-16T08:11:17;95607.84;;;3.67;74.04
30110;BME280;14965;50.660;13.226;2023-02-16T08:13:44;95615.34;;;3.78;73.70
30110;BME280;14965;50.660;13.226;2023-02-16T08:16:15;95613.47;;;3.85;73.52
30110;BME280;14965;50.660;13.226;2023-02-16T08:18:42;95613.97;;;3.98;73.37
30110;BME280;14965;50.660;13.226;2023-02-16T08:21:11;95610.19;;;4.10;73.17
30110;BME280;14965;50.660;13.226;2023-02-16T08:23:38;95608.69;;;4.19;72.61
30110;BME280;14965;50.660;13.226;2023-02-16T08:26:08;95620.81;;;4.25;72.25
30110;BME280;14965;50.660;13.226;2023-02-16T08:28:34;95609.94;;;4.33;72.17
30110;BME280;14965;50.660;13.226;2023-02-16T08:31:02;95617.44;;;4.43;71.90
30110;BME280;14965;50.660;13.226;2023-02-16T08:33:29;95619.81;;;4.44;71.12
30110;BME280;14965;50.660;13.226;2023-02-16T08:35:55;95621.78;;;4.51;70.41
30110;BME280;14965;50.660;13.226;2023-02-16T08:38:21;95621.06;;;4.58;69.98
30110;BME280;14965;50.660;13.226;2023-02-16T08:40:48;95625.78;;;4.68;69.80
30110;BME280;14965;50.660;13.226;2023-02-16T08:43:14;95626.66;;;4.79;69.87
30110;BME280;14965;50.660;13.226;2023-02-16T08:45:51;95620.84;;;4.91;69.00
30110;BME280;14965;50.660;13.226;2023-02-16T08:48:29;95628.72;;;5.00;68.22
30110;BME280;14965;50.660;13.226;2023-02-16T08:50:58;95620.94;;;5.09;68.53
30110;BME280;14965;50.660;13.226;2023-02-16T08:53:29;95622.94;;;5.16;67.04
30110;BME280;14965;50.660;13.226;2023-02-16T08:55:57;95618.66;;;5.18;66.26
30110;BME280;14965;50.660;13.226;2023-02-16T08:58:24;95618.66;;;5.25;65.62
30110;BME280;14965;50.660;13.226;2023-02-16T09:00:53;95609.69;;;5.32;66.18
30110;BME280;14965;50.660;13.226;2023-02-16T09:03:19;95613.63;;;5.42;66.22
30110;BME280;14965;50.660;13.226;2023-02-16T09:05:50;95620.31;;;5.52;66.34
30110;BME280;14965;50.660;13.226;2023-02-16T09:08:16;95612.50;;;5.57;65.23
30110;BME280;14965;50.660;13.226;2023-02-16T09:10:42;95612.53;;;5.64;65.82
30110;BME280;14965;50.660;13.226;2023-02-16T09:13:15;95616.84;;;5.76;64.11
30110;BME280;14965;50.660;13.226;2023-02-16T09:15:47;95614.16;;;5.97;64.80
30110;BME280;14965;50.660;13.226;2023-02-16T09:18:13;95621.22;;;6.06;64.05
30110;BME280;14965;50.660;13.226;2023-02-16T09:20:41;95614.97;;;5.98;64.30
30110;BME280;14965;50.660;13.226;2023-02-16T09:23:10;95616.91;;;6.08;63.94
30110;BME280;14965;50.660;13.226;2023-02-16T09:25:38;95615.34;;;6.18;63.45
30110;BME280;14965;50.660;13.226;2023-02-16T09:28:08;95616.53;;;6.28;63.84
30110;BME280;14965;50.660;13.226;2023-02-16T09:30:37;95615.72;;;6.34;63.28
30110;BME280;14965;50.660;13.226;2023-02-16T09:33:17;95615.72;;;6.31;62.82
30110;BME280;14965;50.660;13.226;2023-02-16T09:35:52;95617.31;;;6.28;63.42
30110;BME280;14965;50.660;13.226;2023-02-16T09:38:20;95623.56;;;6.21;63.05
30110;BME280;14965;50.660;13.226;2023-02-16T09:40:46;95625.94;;;6.23;62.73
30110;BME280;14965;50.660;13.226;2023-02-16T09:43:26;95624.34;;;6.18;62.64
30110;BME280;14965;50.660;13.226;2023-02-16T09:46:01;95620.06;;;6.28;63.21
30110;BME280;14965;50.660;13.226;2023-02-16T09:48:37;95618.09;;;6.25;63.28
30110;BME280;14965;50.660;13.226;2023-02-16T09:51:05;95622.78;;;6.21;62.95
30110;BME280;14965;50.660;13.226;2023-02-16T09:53:36;95624.00;;;6.27;63.62
30110;BME280;14965;50.660;13.226;2023-02-16T09:56:17;95621.63;;;6.36;62.92
30110;BME280;14965;50.660;13.226;2023-02-16T09:58:52;95623.97;;;6.38;62.69
30110;BME280;14965;50.660;13.226;2023-02-16T10:01:30;95627.50;;;6.42;62.33
30110;BME280;14965;50.660;13.226;2023-02-16T10:04:23;95630.25;;;6.53;62.54
30110;BME280;14965;50.660;13.226;2023-02-16T10:07:05;95629.44;;;6.66;61.67
30110;BME280;14965;50.660;13.226;2023-02-16T10:09:39;95627.06;;;6.72;61.52
30110;BME280;14965;50.660;13.226;2023-02-16T10:12:17;95629.03;;;6.82;61.32
30110;BME280;14965;50.660;13.226;2023-02-16T10:14:53;95631.72;;;6.89;60.22
30110;BME280;14965;50.660;13.226;2023-02-16T10:17:30;95627.41;;;6.95;60.26
30110;BME280;14965;50.660;13.226;2023-02-16T10:20:03;95627.00;;;7.01;59.17
30110;BME280;14965;50.660;13.226;2023-02-16T10:22:33;95625.81;;;6.98;59.30
30110;BME280;14965;50.660;13.226;2023-02-16T10:25:07;95618.00;;;6.96;59.30
30110;BME280;14965;50.660;13.226;2023-02-16T10:27:39;95619.53;;;7.05;59.38
30110;BME280;14965;50.660;13.226;2023-02-16T10:30:18;95614.75;;;7.27;59.69
30110;BME280;14965;50.660;13.226;2023-02-16T10:32:56;95612.72;;;7.41;58.64
30110;BME280;14965;50.660;13.226;2023-02-16T10:35:33;95607.53;;;7.61;59.34
30110;BME280;14965;50.660;13.226;2023-02-16T10:38:10;95609.06;;;7.69;57.45
30110;BME280;14965;50.660;13.226;2023-02-16T10:40:51;95608.31;;;7.65;56.51
30110;BME280;14965;50.660;13.226;2023-02-16T10:43:34;95606.66;;;7.75;57.89
30110;BME280;14965;50.660;13.226;2023-02-16T10:46:04;95608.59;;;7.82;56.10
30110;BME280;14965;50.660;13.226;2023-02-16T10:48:32;95600.25;;;7.92;56.68
30110;BME280;14965;50.660;13.226;2023-02-16T10:51:02;95593.97;;;7.95;54.95
30110;BME280;14965;50.660;13.226;2023-02-16T10:53:39;95587.59;;;8.06;54.54
30110;BME280;14965;50.660;13.226;2023-02-16T10:56:37;95590.72;;;8.11;53.23
30110;BME280;14965;50.660;13.226;2023-02-16T10:59:11;95586.72;;;8.19;53.99
30110;BME280;14965;50.660;13.226;2023-02-16T11:01:43;95572.06;;;8.30;52.83
30110;BME280;14965;50.660;13.226;2023-02-16T11:04:33;95576.34;;;8.38;52.59
30110;BME280;14965;50.660;13.226;2023-02-16T11:07:06;95569.22;;;8.44;52.35
30110;BME280;14965;50.660;13.226;2023-02-16T11:09:32;95573.88;;;8.51;52.48
30110;BME280;14965;50.660;13.226;2023-02-16T11:11:59;95567.09;;;8.62;52.55
30110;BME280;14965;50.660;13.226;2023-02-16T11:14:29;95574.09;;;8.70;52.38
30110;BME280;14965;50.660;13.226;2023-02-16T11:17:07;95580.31;;;8.78;51.91
30110;BME280;14965;50.660;13.226;2023-02-16T11:19:34;95572.78;;;8.82;51.25
30110;BME280;14965;50.660;13.226;2023-02-16T11:22:00;95563.19;;;8.94;52.05
30110;BME280;14965;50.660;13.226;2023-02-16T11:24:28;95561.16;;;9.02;51.60
30110;BME280;14965;50.660;13.226;2023-02-16T11:27:03;95562.66;;;9.06;50.02
30110;BME280;14965;50.660;13.226;2023-02-16T11:29:29;95554.75;;;9.12;50.87
30110;BME280;14965;50.660;13.226;2023-02-16T11:31:56;95554.25;;;9.20;50.94
30110;BME280;14965;50.660;13.226;2023-02-16T11:34:30;95555.47;;;9.16;50.51
30110;BME280;14965;50.660;13.226;2023-02-16T11:37:05;95549.91;;;9.19;50.50
30110;BME280;14965;50.660;13.226;2023-02-16T11:39:36;95553.41;;;9.23;49.71
30110;BME280;14965;50.660;13.226;2023-02-16T11:42:08;95541.16;;;9.28;49.69
30110;BME280;14965;50.660;13.226;2023-02-16T11:44:50;95543.53;;;9.26;47.13
30110;BME280;14965;50.660;13.226;2023-02-16T11:47:23;95546.31;;;9.22;47.29
30110;BME280;14965;50.660;13.226;2023-02-16T11:50:07;95541.28;;;9.17;47.98
30110;BME280;14965;50.660;13.226;2023-02-16T11:52:33;95541.59;;;9.23;48.03
30110;BME280;14965;50.660;13.226;2023-02-16T11:55:01;95535.25;;;9.26;47.77
30110;BME280;14965;50.660;13.226;2023-02-16T11:57:30;95536.53;;;9.18;48.34
30110;BME280;14965;50.660;13.226;2023-02-16T12:00:09;95527.53;;;9.14;46.33
30110;BME280;14965;50.660;13.226;2023-02-16T12:03:05;95526.34;;;9.15;46.72
30110;BME280;14965;50.660;13.226;2023-02-16T12:05:49;95534.69;;;9.11;47.52
30110;BME280;14965;50.660;13.226;2023-02-16T12:08:34;95523.22;;;9.13;47.64
30110;BME280;14965;50.660;13.226;2023-02-16T12:11:21;95520.81;;;9.15;48.29
30110;BME280;14965;50.660;13.226;2023-02-16T12:14:06;95532.00;;;9.04;47.95
30110;BME280;14965;50.660;13.226;2023-02-16T12:16:43;95524.13;;;9.03;48.04
30110;BME280;14965;50.660;13.226;2023-02-16T12:19:29;95518.53;;;9.10;49.05
30110;BME280;14965;50.660;13.226;2023-02-16T12:22:13;95522.81;;;9.14;48.20
30110;BME280;14965;50.660;13.226;2023-02-16T12:24:55;95517.72;;;9.13;47.21
30110;BME280;14965;50.660;13.226;2023-02-16T12:27:29;95509.88;;;9.11;48.16
30110;BME280;14965;50.660;13.226;2023-02-16T12:30:08;95516.31;;;8.97;48.41
30110;BME280;14965;50.660;13.226;2023-02-16T12:32:59;95522.38;;;8.85;49.10
30110;BME280;14965;50.660;13.226;2023-02-16T12:35:52;95514.88;;;8.86;49.06
30110;BME280;14965;50.660;13.226;2023-02-16T12:38:34;95518.47;;;8.83;49.46
30110;BME280;14965;50.660;13.226;2023-02-16T12:41:22;95518.34;;;8.93;49.63
30110;BME280;14965;50.660;13.226;2023-02-16T12:43:55;95514.81;;;8.93;48.21
30110;BME280;14965;50.660;13.226;2023-02-16T12:46:30;95510.22;;;8.83;47.63
30110;BME280;14965;50.660;13.226;2023-02-16T12:49:06;95507.91;;;8.78;48.14
30110;BME280;14965;50.660;13.226;2023-02-16T12:51:46;95508.69;;;8.78;48.39
30110;BME280;14965;50.660;13.226;2023-02-16T12:54:16;95512.97;;;8.83;48.86
30110;BME280;14965;50.660;13.226;2023-02-16T12:56:50;95506.63;;;8.86;49.35
30110;BME280;14965;50.660;13.226;2023-02-16T12:59:32;95507.50;;;8.79;49.64
30110;BME280;14965;50.660;13.226;2023-02-16T13:02:11;95517.50;;;8.66;49.58
30110;BME280;14965;50.660;13.226;2023-02-16T13:04:45;95518.72;;;8.61;49.65
30110;BME280;14965;50.660;13.226;2023-02-16T13:07:21;95508.88;;;8.60;50.18
30110;BME280;14965;50.660;13.226;2023-02-16T13:09:59;95507.72;;;8.61;50.56
30110;BME280;14965;50.660;13.226;2023-02-16T13:12:33;95512.91;;;8.52;51.10
30110;BME280;14965;50.660;13.226;2023-02-16T13:15:10;95509.47;;;8.44;51.47
30110;BME280;14965;50.660;13.226;2023-02-16T13:17:44;95512.28;;;8.34;51.73
30110;BME280;14965;50.660;13.226;2023-02-16T13:20:13;95509.59;;;8.27;51.12
30110;BME280;14965;50.660;13.226;2023-02-16T13:23:10;95508.09;;;8.18;52.40
30110;BME280;14965;50.660;13.226;2023-02-16T13:26:08;95512.00;;;8.21;52.91
30110;BME280;14965;50.660;13.226;2023-02-16T13:29:28;95505.69;;;8.24;52.79
30110;BME280;14965;50.660;13.226;2023-02-16T13:32:12;95505.31;;;8.22;51.51
30110;BME280;14965;50.660;13.226;2023-02-16T13:35:11;95497.81;;;8.26;52.07
30110;BME280;14965;50.660;13.226;2023-02-16T13:38:04;95503.63;;;8.32;52.73